Time;durP1;ratioP1;P1;durP2;ratioP2;P2;SDS_P1;SDS_P2;PMS_P1;PMS_P2;Temp;Humidity;BMP_temperature;BMP_pressure;BME280_temperature;BME280_humidity;BME280_pressure;Samples;Min_cycle;Max_cycle;Signal;HPM_P1;HPM_P2
2022/07/16 00:01:23;;;;;;;1.40;0.77;;;16.60;99.90;;;;;;5049373;28;20702;-66
2022/07/16 00:03:52;;;;;;;2.73;0.73;;;16.70;99.90;;;;;;5047318;28;20200;-66
2022/07/16 00:06:20;;;;;;;0.50;0.50;;;16.80;99.90;;;;;;5049107;28;20208;-66
2022/07/16 00:08:47;;;;;;;1.50;0.70;;;16.80;99.90;;;;;;5048901;28;20211;-66
2022/07/16 00:11:15;;;;;;;0.90;0.60;;;16.80;99.90;;;;;;5049525;28;20227;-66
2022/07/16 00:13:41;;;;;;;1.40;0.87;;;16.70;99.90;;;;;;5036722;28;20683;-66
2022/07/16 00:16:09;;;;;;;0.50;0.50;;;16.70;99.90;;;;;;5044263;28;20200;-66
2022/07/16 00:21:22;;;;;;;0.67;0.67;;;16.60;99.90;;;;;;5048565;28;20258;-66
2022/07/16 00:23:49;;;;;;;1.40;0.60;;;16.60;99.90;;;;;;5039054;28;20201;-66
2022/07/16 00:26:16;;;;;;;0.63;0.60;;;16.60;99.90;;;;;;5028935;28;20208;-66
2022/07/16 00:28:42;;;;;;;0.40;0.40;;;16.50;99.90;;;;;;5029047;28;20215;-66
2022/07/16 00:31:09;;;;;;;1.10;0.67;;;16.60;99.90;;;;;;5046685;28;20247;-66
2022/07/16 00:33:36;;;;;;;0.50;0.50;;;16.50;99.90;;;;;;5048336;28;20749;-66
2022/07/16 00:36:09;;;;;;;0.60;0.50;;;16.50;99.90;;;;;;5048649;28;20215;-66
2022/07/16 00:38:37;;;;;;;0.77;0.60;;;16.50;99.90;;;;;;5048672;28;20204;-66
2022/07/16 00:41:16;;;;;;;0.60;0.40;;;16.50;99.90;;;;;;5047387;28;20236;-67
2022/07/16 00:43:47;;;;;;;1.17;0.77;;;16.50;99.90;;;;;;5040604;28;20325;-67
2022/07/16 00:46:14;;;;;;;1.27;0.43;;;16.40;99.90;;;;;;5048567;28;20224;-67
2022/07/16 00:48:41;;;;;;;0.40;0.40;;;16.40;99.90;;;;;;5047996;28;20720;-67
2022/07/16 00:51:08;;;;;;;0.73;0.70;;;16.50;99.90;;;;;;5047270;28;20222;-67
2022/07/16 00:53:38;;;;;;;2.47;0.70;;;16.50;99.90;;;;;;5041073;28;20224;-66
2022/07/16 00:56:09;;;;;;;2.17;0.70;;;16.50;99.90;;;;;;5028706;28;20208;-67
2022/07/16 00:58:38;;;;;;;1.50;0.50;;;16.40;99.90;;;;;;5028667;28;20270;-67
2022/07/16 01:01:08;;;;;;;0.60;0.60;;;16.40;99.90;;;;;;5038535;28;20232;-66
2022/07/16 01:03:36;;;;;;;1.83;0.67;;;16.40;99.90;;;;;;5029317;28;20223;-66
2022/07/16 01:06:10;;;;;;;1.27;0.53;;;16.40;99.90;;;;;;5028166;28;20208;-66
2022/07/16 01:08:42;;;;;;;1.67;0.70;;;16.30;99.90;;;;;;5028123;28;20200;-66
2022/07/16 01:11:11;;;;;;;1.60;0.43;;;16.30;99.90;;;;;;5035948;28;20659;-66
2022/07/16 01:13:41;;;;;;;5.10;0.80;;;16.30;99.90;;;;;;5046319;28;20575;-66
2022/07/16 01:16:09;;;;;;;1.17;0.60;;;16.20;99.90;;;;;;5027953;28;20201;-67
2022/07/16 01:18:36;;;;;;;0.50;0.50;;;16.20;99.90;;;;;;5028295;28;20267;-67
2022/07/16 01:21:06;;;;;;;1.27;0.60;;;16.20;99.90;;;;;;5034292;28;20235;-67
2022/07/16 01:23:34;;;;;;;3.13;0.80;;;16.10;99.90;;;;;;5031612;28;20201;-66
2022/07/16 01:26:06;;;;;;;1.30;0.50;;;16.20;99.90;;;;;;5028091;28;20565;-67
2022/07/16 01:28:33;;;;;;;0.97;0.57;;;16.20;99.90;;;;;;5028048;28;20196;-66
2022/07/16 01:31:00;;;;;;;1.90;0.50;;;16.20;99.90;;;;;;5044822;28;20569;-67
2022/07/16 01:33:29;;;;;;;0.53;0.50;;;16.20;99.90;;;;;;5048025;28;20218;-66
2022/07/16 01:35:57;;;;;;;0.43;0.43;;;16.30;99.90;;;;;;5047491;28;20211;-66
2022/07/16 01:38:25;;;;;;;0.87;0.30;;;16.30;99.90;;;;;;5031150;28;20201;-66
2022/07/16 01:40:53;;;;;;;1.13;0.80;;;16.20;99.90;;;;;;5046796;28;20240;-66
2022/07/16 01:43:22;;;;;;;0.57;0.40;;;16.30;99.90;;;;;;5047772;28;20308;-66
2022/07/16 01:45:50;;;;;;;0.57;0.57;;;16.20;99.90;;;;;;5047260;28;20707;-67
2022/07/16 01:48:18;;;;;;;0.60;0.50;;;16.20;99.90;;;;;;5037730;28;20211;-66
2022/07/16 01:50:45;;;;;;;1.77;0.70;;;16.20;99.90;;;;;;5027682;28;20686;-66
2022/07/16 01:53:13;;;;;;;0.97;0.57;;;16.10;99.90;;;;;;5030212;28;20581;-67
2022/07/16 01:55:39;;;;;;;2.17;0.70;;;16.10;99.90;;;;;;5034348;28;20208;-68
2022/07/16 01:58:11;;;;;;;0.77;0.60;;;16.00;99.90;;;;;;5039920;28;20667;-67
2022/07/16 02:00:39;;;;;;;2.63;0.53;;;16.00;99.90;;;;;;5054157;28;20220;-67
2022/07/16 02:03:06;;;;;;;1.30;0.90;;;16.00;99.90;;;;;;5053825;28;20685;-66
2022/07/16 02:05:33;;;;;;;1.40;0.70;;;15.90;99.90;;;;;;5054334;28;20206;-66
2022/07/16 02:08:00;;;;;;;1.23;0.70;;;15.90;99.90;;;;;;5041157;28;20204;-66
2022/07/16 02:10:27;;;;;;;1.90;0.87;;;15.90;99.90;;;;;;5033973;28;21008;-66
2022/07/16 02:12:54;;;;;;;1.00;0.60;;;15.80;99.90;;;;;;5033961;28;20208;-66
2022/07/16 02:15:22;;;;;;;2.60;0.60;;;15.80;99.90;;;;;;5034191;28;20655;-66
2022/07/16 02:17:49;;;;;;;0.70;0.70;;;15.80;99.90;;;;;;5043828;28;20705;-66
2022/07/16 02:20:17;;;;;;;1.20;0.80;;;15.80;99.90;;;;;;5053870;28;20215;-66
2022/07/16 02:22:44;;;;;;;0.57;0.53;;;15.80;99.90;;;;;;5053466;28;20294;-66
2022/07/16 02:25:11;;;;;;;0.90;0.70;;;15.70;99.90;;;;;;5033884;28;20216;-66
2022/07/16 02:28:05;;;;;;;0.93;0.60;;;15.80;99.90;;;;;;5042190;28;20203;-66
2022/07/16 02:30:27;;;;;;;0.60;0.60;;;15.80;99.90;;;;;;5053439;28;20246;-66
2022/07/16 02:32:54;;;;;;;1.60;0.70;;;15.70;99.90;;;;;;5053593;28;20239;-66
2022/07/16 02:35:21;;;;;;;2.40;0.60;;;15.70;99.90;;;;;;5054041;28;20204;-66
2022/07/16 02:37:48;;;;;;;1.43;1.13;;;15.60;99.90;;;;;;5049349;28;20563;-66
2022/07/16 02:40:15;;;;;;;0.63;0.63;;;15.70;99.90;;;;;;5053723;28;20204;-66
2022/07/16 02:42:42;;;;;;;0.90;0.60;;;15.70;99.90;;;;;;5053788;28;20541;-66
2022/07/16 02:45:10;;;;;;;0.87;0.57;;;15.70;99.90;;;;;;5052067;28;20210;-66
2022/07/16 02:47:39;;;;;;;0.60;0.60;;;15.70;99.90;;;;;;5033927;28;20204;-66
2022/07/16 02:50:07;;;;;;;1.80;0.90;;;15.70;99.90;;;;;;5033515;28;20211;-66
2022/07/16 02:52:34;;;;;;;1.93;0.60;;;15.60;99.90;;;;;;5037479;28;20679;-66
2022/07/16 02:55:01;;;;;;;0.60;0.60;;;15.70;99.90;;;;;;5046090;28;20222;-66
2022/07/16 02:57:28;;;;;;;0.97;0.80;;;15.70;99.90;;;;;;5052851;28;20546;-66
2022/07/16 02:59:55;;;;;;;2.77;0.57;;;15.80;99.90;;;;;;5053668;28;20215;-66
2022/07/16 03:02:22;;;;;;;1.57;0.77;;;15.80;99.90;;;;;;5053894;28;20247;-66
2022/07/16 03:04:50;;;;;;;1.23;0.80;;;15.90;99.90;;;;;;5050945;28;20303;-67
2022/07/16 03:07:17;;;;;;;1.93;0.80;;;15.80;99.90;;;;;;5045651;28;20224;-66
2022/07/16 03:09:44;;;;;;;1.93;0.80;;;15.90;99.90;;;;;;5030586;28;20216;-67
2022/07/16 03:12:10;;;;;;;0.40;0.40;;;15.90;99.90;;;;;;5030469;28;20593;-66
2022/07/16 03:14:37;;;;;;;2.67;0.70;;;15.90;99.90;;;;;;5030778;28;20205;-68
2022/07/16 03:17:04;;;;;;;0.70;0.70;;;15.80;99.90;;;;;;5030363;28;20200;-67
2022/07/16 03:19:31;;;;;;;1.60;0.73;;;15.80;99.90;;;;;;5030133;28;20678;-66
2022/07/16 03:21:59;;;;;;;0.67;0.47;;;15.80;99.90;;;;;;5029918;28;20573;-66
2022/07/16 03:24:26;;;;;;;0.63;0.60;;;15.80;99.90;;;;;;5030170;28;20208;-65
2022/07/16 03:26:52;;;;;;;1.40;0.60;;;15.70;99.90;;;;;;5047654;28;20957;-66
2022/07/16 03:29:19;;;;;;;1.13;0.50;;;15.70;99.90;;;;;;5030064;28;20655;-66
2022/07/16 03:31:46;;;;;;;2.20;0.70;;;15.70;99.90;;;;;;5035834;28;20242;-67
2022/07/16 03:34:13;;;;;;;0.77;0.63;;;15.70;99.90;;;;;;5050207;28;20223;-66
2022/07/16 03:36:40;;;;;;;1.10;0.90;;;15.60;99.90;;;;;;5046354;28;20219;-66
2022/07/16 03:39:08;;;;;;;2.17;0.67;;;15.70;99.90;;;;;;5048502;28;20204;-66
2022/07/16 03:41:37;;;;;;;1.23;0.67;;;15.70;99.90;;;;;;5049819;28;20394;-67
2022/07/16 03:44:05;;;;;;;0.83;0.50;;;15.70;99.90;;;;;;5049702;28;20233;-67
2022/07/16 03:46:33;;;;;;;1.33;0.67;;;15.70;99.90;;;;;;5049744;28;20220;-67
2022/07/16 03:49:00;;;;;;;1.33;0.70;;;15.80;99.90;;;;;;5043127;28;20288;-67
2022/07/16 03:51:27;;;;;;;1.37;0.60;;;15.80;99.90;;;;;;5036202;28;20667;-66
2022/07/16 03:53:54;;;;;;;3.47;0.70;;;15.80;99.90;;;;;;5049501;28;20215;-67
2022/07/16 03:56:24;;;;;;;1.10;0.80;;;15.80;99.90;;;;;;5049623;28;20216;-67
2022/07/16 03:58:51;;;;;;;2.73;0.63;;;15.80;99.90;;;;;;5032831;28;20564;-67
2022/07/16 04:01:18;;;;;;;1.10;1.00;;;15.80;99.90;;;;;;5029477;28;20233;-67
2022/07/16 04:03:44;;;;;;;0.93;0.70;;;15.80;99.90;;;;;;5029517;28;20204;-67
2022/07/16 04:06:11;;;;;;;1.07;0.77;;;15.90;99.90;;;;;;5031138;28;20212;-67
2022/07/16 04:08:38;;;;;;;0.83;0.70;;;15.80;99.90;;;;;;5048991;28;20376;-66
2022/07/16 04:11:11;;;;;;;0.80;0.80;;;15.90;99.90;;;;;;5048214;28;20205;-66
2022/07/16 04:13:41;;;;;;;0.60;0.60;;;16.00;99.90;;;;;;5043707;28;20221;-66
2022/07/16 04:16:08;;;;;;;0.90;0.73;;;16.00;99.90;;;;;;5028718;28;20245;-66
2022/07/16 04:18:35;;;;;;;0.60;0.50;;;16.00;99.90;;;;;;5029234;28;20209;-66
2022/07/16 04:21:06;;;;;;;0.90;0.90;;;15.90;99.90;;;;;;5029411;28;20705;-66
2022/07/16 04:23:33;;;;;;;1.13;0.70;;;16.00;99.90;;;;;;5042685;28;20227;-66
2022/07/16 04:26:00;;;;;;;3.70;0.87;;;16.00;99.90;;;;;;5048945;28;20208;-66
2022/07/16 04:28:27;;;;;;;0.60;0.60;;;16.00;99.90;;;;;;5047166;28;20208;-66
2022/07/16 04:30:55;;;;;;;2.03;0.60;;;16.00;99.90;;;;;;5065816;28;20196;-66
2022/07/16 04:33:21;;;;;;;1.00;0.67;;;15.90;99.90;;;;;;5048668;28;20192;-66
2022/07/16 04:35:49;;;;;;;0.47;0.40;;;15.90;99.90;;;;;;5048489;28;20196;-66
2022/07/16 04:38:16;;;;;;;0.93;0.73;;;15.90;99.90;;;;;;5048648;28;20200;-66
2022/07/16 04:40:43;;;;;;;1.60;0.80;;;15.90;99.90;;;;;;5048897;28;20239;-66
2022/07/16 04:43:10;;;;;;;0.87;0.63;;;15.80;99.90;;;;;;5030093;28;20208;-66
2022/07/16 04:45:37;;;;;;;1.07;0.90;;;15.80;99.90;;;;;;5037496;28;20223;-66
2022/07/16 04:48:05;;;;;;;0.87;0.80;;;15.80;99.90;;;;;;5048042;28;20223;-66
2022/07/16 04:50:32;;;;;;;2.63;0.87;;;15.90;99.90;;;;;;5048667;28;20204;-67
2022/07/16 04:52:59;;;;;;;0.87;0.60;;;15.80;99.90;;;;;;5045082;28;20211;-66
2022/07/16 04:55:26;;;;;;;2.37;0.90;;;15.80;99.90;;;;;;5028629;28;20211;-66
2022/07/16 04:57:52;;;;;;;1.20;0.90;;;15.80;99.90;;;;;;5028438;28;20306;-66
2022/07/16 05:00:19;;;;;;;0.80;0.80;;;15.80;99.90;;;;;;5029789;28;20223;-66
2022/07/16 05:02:58;;;;;;;1.03;0.93;;;15.80;99.90;;;;;;5034989;28;20715;-68
2022/07/16 05:05:29;;;;;;;2.23;0.63;;;15.90;99.90;;;;;;5028588;28;20197;-66
2022/07/16 05:07:55;;;;;;;1.90;0.80;;;15.90;99.90;;;;;;5028079;28;20197;-67
2022/07/16 05:10:24;;;;;;;1.60;0.60;;;15.90;99.90;;;;;;5028294;28;20208;-66
2022/07/16 05:12:51;;;;;;;1.03;0.77;;;16.00;99.90;;;;;;5030978;28;20615;-67
2022/07/16 05:15:18;;;;;;;0.70;0.70;;;16.00;99.90;;;;;;5046741;28;20234;-66
2022/07/16 05:17:44;;;;;;;1.10;0.60;;;16.10;99.90;;;;;;5046422;28;20232;-66
2022/07/16 05:20:12;;;;;;;2.87;0.80;;;16.10;99.90;;;;;;5046131;28;20212;-66
2022/07/16 05:22:40;;;;;;;1.87;0.70;;;16.20;99.90;;;;;;5042577;28;20225;-67
2022/07/16 05:25:09;;;;;;;1.33;0.70;;;16.30;99.90;;;;;;5025771;28;20208;-67
2022/07/16 05:27:36;;;;;;;0.87;0.70;;;16.30;99.90;;;;;;5025497;28;20205;-67
2022/07/16 05:30:03;;;;;;;1.00;0.90;;;16.30;99.90;;;;;;5036174;28;20698;-67
2022/07/16 05:32:30;;;;;;;2.23;1.03;;;16.30;99.90;;;;;;5039463;28;20239;-67
2022/07/16 05:34:57;;;;;;;0.77;0.77;;;16.40;99.90;;;;;;5045610;28;20212;-67
2022/07/16 05:37:24;;;;;;;1.67;1.10;;;16.40;99.90;;;;;;5045496;28;20208;-66
2022/07/16 05:39:52;;;;;;;2.23;1.20;;;16.40;99.90;;;;;;5045526;28;20208;-66
2022/07/16 05:42:19;;;;;;;1.60;0.90;;;16.50;99.90;;;;;;5043996;28;20235;-67
2022/07/16 05:44:46;;;;;;;1.50;0.93;;;16.50;99.90;;;;;;5032693;28;20215;-67
2022/07/16 05:47:13;;;;;;;1.13;1.03;;;16.60;99.90;;;;;;5028083;28;20225;-67
2022/07/16 05:49:39;;;;;;;1.23;1.00;;;16.60;99.90;;;;;;5038234;28;20223;-67
2022/07/16 05:52:06;;;;;;;2.93;1.27;;;16.60;99.90;;;;;;5047178;28;20219;-67
2022/07/16 05:54:33;;;;;;;2.30;1.00;;;16.60;99.90;;;;;;5031282;28;20209;-67
2022/07/16 05:57:01;;;;;;;0.90;0.90;;;16.50;99.90;;;;;;5047219;28;20204;-67
2022/07/16 05:59:28;;;;;;;1.00;0.97;;;16.50;99.90;;;;;;5047329;28;20200;-67
2022/07/16 06:01:54;;;;;;;1.50;1.00;;;16.60;99.90;;;;;;5042645;28;20235;-67
2022/07/16 06:04:21;;;;;;;3.47;1.30;;;16.50;99.90;;;;;;5027277;28;20208;-67
2022/07/16 06:06:48;;;;;;;3.70;1.40;;;16.50;99.90;;;;;;5027007;28;20205;-67
2022/07/16 06:09:15;;;;;;;3.70;1.77;;;16.30;99.90;;;;;;5027089;28;20207;-67
2022/07/16 06:11:42;;;;;;;5.87;1.93;;;16.30;99.90;;;;;;5042987;28;20212;-67
2022/07/16 06:14:10;;;;;;;3.03;1.60;;;16.20;99.90;;;;;;5037777;28;20546;-66
2022/07/16 06:16:43;;;;;;;1.60;1.50;;;15.90;99.90;;;;;;5034951;28;20668;-67
2022/07/16 06:19:10;;;;;;;2.20;1.97;;;15.70;99.90;;;;;;5034835;28;20205;-66
2022/07/16 06:21:37;;;;;;;2.47;1.90;;;15.60;99.90;;;;;;5040801;28;20603;-67
2022/07/16 06:24:07;;;;;;;1.60;1.50;;;15.50;99.90;;;;;;5034863;28;20216;-67
2022/07/16 06:26:34;;;;;;;3.27;2.10;;;15.30;99.90;;;;;;5025500;28;20703;-66
2022/07/16 06:29:01;;;;;;;2.73;2.47;;;15.20;99.90;;;;;;5026944;28;20213;-67
2022/07/16 06:31:29;;;;;;;2.80;1.90;;;15.20;99.90;;;;;;5039068;28;20232;-66
2022/07/16 06:33:56;;;;;;;1.87;1.77;;;15.20;99.90;;;;;;5025684;28;20211;-66
2022/07/16 06:36:22;;;;;;;2.00;1.80;;;15.10;99.90;;;;;;5025343;28;20216;-67
2022/07/16 06:38:49;;;;;;;2.30;2.10;;;15.10;99.90;;;;;;5037466;28;20212;-66
2022/07/16 06:41:17;;;;;;;3.93;1.80;;;15.10;99.90;;;;;;5029525;28;20226;-66
2022/07/16 06:43:44;;;;;;;1.80;1.70;;;15.10;99.90;;;;;;5040201;28;20235;-67
2022/07/16 06:46:11;;;;;;;2.10;1.70;;;15.10;99.90;;;;;;5049236;28;20234;-67
2022/07/16 06:48:39;;;;;;;2.87;2.10;;;15.10;99.90;;;;;;5048495;28;20219;-67
2022/07/16 06:51:09;;;;;;;1.80;1.70;;;15.10;99.90;;;;;;5050490;28;20204;-66
2022/07/16 06:53:38;;;;;;;1.87;1.57;;;15.10;99.90;;;;;;5039316;28;20219;-66
2022/07/16 06:56:10;;;;;;;1.97;1.87;;;15.10;99.90;;;;;;5029841;28;20212;-66
2022/07/16 06:58:37;;;;;;;1.90;1.70;;;15.10;99.90;;;;;;5030904;28;20520;-67
2022/07/16 07:01:11;;;;;;;1.90;1.80;;;15.10;99.90;;;;;;5030803;28;20208;-66
2022/07/16 07:03:40;;;;;;;1.90;1.80;;;15.20;99.90;;;;;;5030745;28;20225;-67
2022/07/16 07:06:10;;;;;;;1.80;1.70;;;15.30;99.90;;;;;;5030304;28;20663;-66
2022/07/16 07:08:37;;;;;;;2.20;1.70;;;15.30;99.90;;;;;;5030216;28;20645;-67
2022/07/16 07:11:13;;;;;;;2.33;2.13;;;15.30;99.90;;;;;;5030572;28;20209;-66
2022/07/16 07:13:40;;;;;;;4.00;2.13;;;15.40;99.90;;;;;;5030849;28;20200;-67
2022/07/16 07:16:10;;;;;;;2.83;2.20;;;15.50;99.90;;;;;;5045176;28;20694;-67
2022/07/16 07:18:37;;;;;;;1.83;1.60;;;15.50;99.90;;;;;;5050571;28;20622;-67
2022/07/16 07:21:12;;;;;;;2.33;2.13;;;15.60;99.90;;;;;;5049619;28;20684;-66
2022/07/16 07:23:38;;;;;;;2.60;2.40;;;15.70;99.90;;;;;;5040243;28;20230;-66
2022/07/16 07:26:08;;;;;;;2.00;1.90;;;15.80;99.90;;;;;;5049091;28;20223;-66
2022/07/16 07:28:35;;;;;;;5.47;2.00;;;15.80;99.90;;;;;;5050233;28;20563;-67
2022/07/16 07:31:10;;;;;;;2.07;1.97;;;16.00;99.90;;;;;;5063605;28;20200;-67
2022/07/16 07:33:37;;;;;;;2.10;2.00;;;16.20;99.90;;;;;;5047378;28;20197;-67
2022/07/16 07:36:11;;;;;;;2.33;2.20;;;16.20;99.90;;;;;;5035617;28;20215;-67
2022/07/16 07:38:38;;;;;;;2.53;1.93;;;16.30;99.90;;;;;;5049726;28;20211;-67
2022/07/16 07:41:11;;;;;;;10.20;2.20;;;16.20;99.90;;;;;;5047103;28;20562;-66
2022/07/16 07:43:38;;;;;;;2.13;1.87;;;16.10;99.90;;;;;;5041211;28;20240;-67
2022/07/16 07:46:11;;;;;;;4.83;2.27;;;16.10;99.90;;;;;;5029609;28;20227;-66
2022/07/16 07:48:37;;;;;;;2.20;1.93;;;16.10;99.90;;;;;;5029822;28;20212;-66
2022/07/16 07:51:12;;;;;;;2.30;2.13;;;16.20;99.90;;;;;;5028881;28;20212;-66
2022/07/16 07:53:39;;;;;;;1.90;1.80;;;16.30;99.90;;;;;;5029973;28;20208;-66
2022/07/16 07:56:12;;;;;;;1.97;1.70;;;16.30;99.90;;;;;;5029687;28;20573;-66
2022/07/16 07:58:39;;;;;;;2.43;2.23;;;16.50;99.90;;;;;;5029424;28;20683;-66
2022/07/16 08:01:09;;;;;;;2.27;1.90;;;16.60;99.90;;;;;;5029655;28;20208;-67
2022/07/16 08:03:36;;;;;;;4.50;2.00;;;16.60;99.90;;;;;;5029887;28;20221;-66
2022/07/16 08:06:12;;;;;;;2.67;2.10;;;16.70;99.90;;;;;;5029159;28;20211;-66
2022/07/16 08:08:40;;;;;;;3.60;1.67;;;16.70;99.90;;;;;;5029289;28;20192;-67
2022/07/16 08:11:11;;;;;;;1.80;1.70;;;16.90;99.90;;;;;;5029283;28;20209;-67
2022/07/16 08:13:38;;;;;;;2.83;1.70;;;17.00;99.90;;;;;;5032141;28;20204;-66
2022/07/16 08:16:11;;;;;;;2.83;1.50;;;17.10;99.90;;;;;;5029036;28;20215;-67
2022/07/16 08:18:38;;;;;;;1.80;1.47;;;17.20;99.90;;;;;;5028959;28;20209;-67
2022/07/16 08:21:11;;;;;;;2.60;1.33;;;17.30;99.90;;;;;;5037214;28;20235;-67
2022/07/16 08:26:24;;;;;;;1.63;1.40;;;17.20;99.90;;;;;;5028903;28;20710;-67
2022/07/16 08:28:51;;;;;;;2.47;1.30;;;17.20;99.90;;;;;;5029420;28;20677;-67
2022/07/16 08:31:18;;;;;;;1.47;1.37;;;17.20;99.90;;;;;;5044056;28;20244;-68
2022/07/16 08:33:45;;;;;;;5.07;4.67;;;17.20;99.90;;;;;;5028917;28;20193;-68
2022/07/16 08:36:12;;;;;;;2.70;2.10;;;17.20;99.90;;;;;;5028448;28;20205;-67
2022/07/16 08:38:38;;;;;;;2.03;1.17;;;17.40;99.90;;;;;;5048418;28;20212;-67
2022/07/16 08:41:12;;;;;;;1.13;1.13;;;17.60;99.90;;;;;;5046662;28;20208;-67
2022/07/16 08:43:40;;;;;;;1.87;0.97;;;17.70;99.90;;;;;;5028429;28;20232;-67
2022/07/16 08:46:15;;;;;;;1.10;1.10;;;17.80;99.90;;;;;;5028113;28;20707;-67
2022/07/16 08:48:43;;;;;;;1.43;1.23;;;17.90;99.90;;;;;;5036793;28;20212;-67
2022/07/16 08:51:10;;;;;;;1.00;0.93;;;18.00;99.90;;;;;;5030059;28;20213;-67
2022/07/16 08:53:38;;;;;;;1.13;1.03;;;18.10;99.90;;;;;;5041082;28;20219;-67
2022/07/16 08:56:10;;;;;;;0.90;0.90;;;18.20;99.90;;;;;;5040607;28;20204;-67
2022/07/16 08:58:38;;;;;;;3.50;1.30;;;18.20;99.90;;;;;;5048398;28;20626;-67
2022/07/16 09:01:13;;;;;;;1.03;0.80;;;18.10;99.90;;;;;;5046977;28;20212;-67
2022/07/16 09:03:40;;;;;;;1.30;0.70;;;18.00;99.90;;;;;;5027757;28;20243;-67
2022/07/16 09:06:13;;;;;;;0.90;0.63;;;17.90;99.90;;;;;;5028032;28;20211;-67
2022/07/16 09:08:40;;;;;;;0.70;0.70;;;18.00;99.90;;;;;;5029109;28;20209;-67
2022/07/16 09:11:21;;;;;;;2.20;1.10;;;18.10;99.90;;;;;;5048293;28;20204;-67
2022/07/16 09:14:05;;;;;;;2.00;0.60;;;18.20;99.90;;;;;;5031429;28;20202;-67
2022/07/16 09:16:36;;;;;;;0.77;0.77;;;18.30;99.90;;;;;;5032517;28;20540;-67
2022/07/16 09:19:08;;;;;;;1.80;1.13;;;18.30;99.90;;;;;;5047937;28;20192;-67
2022/07/16 09:21:36;;;;;;;1.70;1.00;;;18.30;99.90;;;;;;5044001;28;20189;-67
2022/07/16 09:24:04;;;;;;;1.60;1.07;;;18.30;99.90;;;;;;5032334;28;20603;-67
2022/07/16 09:26:31;;;;;;;2.07;0.97;;;18.40;99.90;;;;;;5033819;28;20659;-67
2022/07/16 09:29:03;;;;;;;5.67;0.90;;;18.40;99.90;;;;;;5033799;28;20208;-67
2022/07/16 09:31:40;;;;;;;1.30;0.70;;;18.40;99.90;;;;;;5027938;28;20267;-67
2022/07/16 09:34:09;;;;;;;1.30;0.70;;;18.50;99.90;;;;;;5028254;28;20200;-67
2022/07/16 09:36:37;;;;;;;0.90;0.80;;;18.60;99.90;;;;;;5032771;28;20565;-67
2022/07/16 09:39:06;;;;;;;1.60;0.90;;;18.50;99.90;;;;;;5031087;28;20207;-67
2022/07/16 09:41:43;;;;;;;2.20;0.83;;;18.60;99.90;;;;;;5047660;28;20667;-67
2022/07/16 09:44:15;;;;;;;2.27;0.90;;;18.80;99.90;;;;;;5043388;28;20217;-67
2022/07/16 09:46:57;;;;;;;2.20;0.90;;;19.00;99.90;;;;;;5027964;28;20282;-67
2022/07/16 09:49:24;;;;;;;1.23;0.90;;;19.10;99.90;;;;;;5027622;28;20201;-67
2022/07/16 09:51:52;;;;;;;0.60;0.60;;;19.20;99.90;;;;;;5027585;28;20201;-67
2022/07/16 09:54:27;;;;;;;0.83;0.80;;;19.10;99.90;;;;;;5040110;28;20235;-67
2022/07/16 09:57:09;;;;;;;4.60;0.70;;;19.10;99.90;;;;;;5047681;28;20253;-67
2022/07/16 09:59:36;;;;;;;1.33;0.90;;;19.00;99.90;;;;;;5047718;28;20666;-67
2022/07/16 10:02:05;;;;;;;1.37;0.67;;;19.00;99.90;;;;;;5047356;28;20682;-67
2022/07/16 10:04:32;;;;;;;1.30;0.80;;;19.00;99.90;;;;;;5040802;28;20437;-67
2022/07/16 10:06:59;;;;;;;1.47;0.97;;;19.10;99.90;;;;;;5045204;28;20212;-67
2022/07/16 10:09:27;;;;;;;2.13;0.97;;;19.30;99.90;;;;;;5047302;28;20209;-67
2022/07/16 10:11:55;;;;;;;2.67;0.93;;;19.40;99.90;;;;;;5047318;28;20212;-67
2022/07/16 10:14:22;;;;;;;0.80;0.80;;;19.40;99.90;;;;;;5045852;28;20204;-67
2022/07/16 10:16:49;;;;;;;1.57;0.83;;;19.40;99.90;;;;;;5030983;28;20694;-67
2022/07/16 10:19:17;;;;;;;2.17;0.83;;;19.50;99.90;;;;;;5031315;28;20204;-67
2022/07/16 10:22:21;;;;;;;0.60;0.57;;;19.50;99.90;;;;;;5031314;28;20217;-67
2022/07/16 10:24:52;;;;;;;2.53;0.80;;;19.50;99.90;;;;;;5039780;28;20315;-68
2022/07/16 10:27:29;;;;;;;0.70;0.70;;;19.60;99.90;;;;;;5031041;28;20725;-67
2022/07/16 10:30:14;;;;;;;3.87;1.00;;;19.60;99.90;;;;;;5040404;28;20275;-67
2022/07/16 10:33:12;;;;;;;4.13;1.23;;;19.60;99.90;;;;;;5050057;28;20720;-67
2022/07/16 10:35:50;;;;;;;4.73;1.03;;;19.60;99.80;;;;;;5036126;28;20193;-68
2022/07/16 10:38:20;;;;;;;1.10;1.00;;;19.60;99.60;;;;;;5031067;28;20201;-67
2022/07/16 10:41:13;;;;;;;1.37;0.70;;;19.60;99.50;;;;;;5031366;28;20215;-67
2022/07/16 10:43:41;;;;;;;0.70;0.70;;;19.60;99.30;;;;;;5030579;28;20256;-67
2022/07/16 10:46:26;;;;;;;2.47;0.80;;;19.50;98.70;;;;;;5048837;28;20230;-67
2022/07/16 10:49:14;;;;;;;1.53;0.80;;;19.60;99.10;;;;;;5050840;28;20200;-67
2022/07/16 10:51:59;;;;;;;1.90;1.80;;;19.70;99.50;;;;;;5050249;28;20610;-67
2022/07/16 10:54:30;;;;;;;1.77;0.90;;;19.80;98.90;;;;;;5040296;28;20285;-67
2022/07/16 10:57:00;;;;;;;2.83;0.80;;;20.00;98.80;;;;;;5050552;28;20594;-67
2022/07/16 10:59:28;;;;;;;2.50;0.80;;;20.10;98.90;;;;;;5050205;28;20666;-67
2022/07/16 11:01:57;;;;;;;9.37;1.87;;;20.20;98.30;;;;;;5050473;28;20208;-67
2022/07/16 11:04:33;;;;;;;1.83;0.80;;;20.20;98.00;;;;;;5048655;28;20235;-67
2022/07/16 11:07:03;;;;;;;1.10;0.83;;;20.30;98.20;;;;;;5049875;28;20192;-67
2022/07/16 11:09:32;;;;;;;2.47;1.30;;;20.40;98.40;;;;;;5050084;28;20299;-67
2022/07/16 11:12:11;;;;;;;2.60;1.07;;;20.20;97.80;;;;;;5050280;28;20303;-67
2022/07/16 11:14:38;;;;;;;3.00;1.00;;;20.10;97.10;;;;;;5044347;28;20239;-68
2022/07/16 11:17:06;;;;;;;4.23;1.37;;;20.00;96.80;;;;;;5030453;28;20223;-67
2022/07/16 11:19:36;;;;;;;2.77;0.97;;;19.90;96.30;;;;;;5039822;28;20696;-67
2022/07/16 11:22:05;;;;;;;2.43;1.00;;;20.00;97.00;;;;;;5049721;28;20214;-67
2022/07/16 11:24:32;;;;;;;3.27;0.60;;;20.10;97.00;;;;;;5035215;28;20734;-67
2022/07/16 11:27:01;;;;;;;1.43;1.07;;;20.10;96.60;;;;;;5028677;28;20695;-67
2022/07/16 11:29:29;;;;;;;1.23;1.13;;;20.30;95.70;;;;;;5041386;28;20212;-67
2022/07/16 11:31:58;;;;;;;1.87;0.70;;;20.40;95.60;;;;;;5049503;28;20239;-68
2022/07/16 11:34:26;;;;;;;2.33;1.07;;;20.70;95.50;;;;;;5029925;28;20216;-67
2022/07/16 11:36:54;;;;;;;1.30;1.00;;;20.90;94.90;;;;;;5029367;28;20217;-67
2022/07/16 11:39:24;;;;;;;1.00;0.70;;;20.90;94.60;;;;;;5029918;28;20213;-67
2022/07/16 11:41:53;;;;;;;3.83;0.80;;;21.00;94.50;;;;;;5037052;28;20216;-67
2022/07/16 11:44:22;;;;;;;1.70;1.40;;;21.30;94.60;;;;;;5040653;28;20235;-67
2022/07/16 11:46:50;;;;;;;4.73;0.90;;;21.40;93.90;;;;;;5044408;28;20195;-68
2022/07/16 11:49:25;;;;;;;1.60;0.68;;;21.70;93.90;;;;;;5040482;28;20201;-67
2022/07/16 11:51:54;;;;;;;0.65;0.65;;;22.00;92.50;;;;;;5047110;28;20204;-67
2022/07/16 11:54:21;;;;;;;2.57;1.00;;;22.10;91.00;;;;;;5047183;28;20204;-67
2022/07/16 11:56:50;;;;;;;1.73;0.80;;;22.20;91.10;;;;;;5047470;28;20215;-67
2022/07/16 11:59:19;;;;;;;0.95;0.70;;;22.10;90.80;;;;;;5047275;28;20215;-67
2022/07/16 12:01:47;;;;;;;5.70;1.08;;;21.90;90.20;;;;;;5046814;28;20216;-67
2022/07/16 12:04:13;;;;;;;1.77;0.93;;;21.70;90.00;;;;;;5029212;28;20250;-67
2022/07/16 12:06:46;;;;;;;1.65;0.93;;;21.60;90.40;;;;;;5039932;28;20204;-67
2022/07/16 12:09:13;;;;;;;1.90;0.70;;;21.80;89.70;;;;;;5046988;28;20246;-67
2022/07/16 12:11:40;;;;;;;2.47;1.00;;;21.70;88.40;;;;;;5047125;28;20226;-67
2022/07/16 12:14:08;;;;;;;2.00;0.70;;;21.40;89.80;;;;;;5046108;28;20212;-67
2022/07/16 12:16:35;;;;;;;3.30;0.85;;;21.40;90.80;;;;;;5042041;28;20223;-67
2022/07/16 12:19:04;;;;;;;2.85;1.02;;;21.60;91.50;;;;;;5026900;28;20239;-67
2022/07/16 12:21:33;;;;;;;2.88;0.85;;;22.00;91.60;;;;;;5026916;28;20216;-67
2022/07/16 12:24:00;;;;;;;1.23;0.70;;;22.10;90.20;;;;;;5027120;28;20236;-67
2022/07/16 12:26:32;;;;;;;1.42;1.00;;;22.00;90.40;;;;;;5043658;28;20204;-68
2022/07/16 12:28:59;;;;;;;0.88;0.63;;;22.20;88.50;;;;;;5028573;28;20219;-67
2022/07/16 12:31:32;;;;;;;4.10;1.40;;;22.40;89.60;;;;;;5047310;28;20244;-68
2022/07/16 12:34:00;;;;;;;1.50;1.05;;;22.50;87.20;;;;;;5031758;28;20197;-67
2022/07/16 12:36:32;;;;;;;3.80;1.17;;;22.40;86.50;;;;;;5026360;28;20204;-67
2022/07/16 12:39:02;;;;;;;1.33;0.90;;;22.50;86.80;;;;;;5025899;28;20212;-68
2022/07/16 12:41:31;;;;;;;1.70;0.90;;;22.60;85.70;;;;;;5026053;28;20767;-67
2022/07/16 12:44:00;;;;;;;2.90;0.60;;;22.80;85.90;;;;;;5040175;28;20228;-67
2022/07/16 12:46:29;;;;;;;2.80;0.98;;;23.10;85.00;;;;;;5046345;28;20310;-68
2022/07/16 12:49:00;;;;;;;2.80;1.10;;;23.40;83.70;;;;;;5046029;28;20742;-68
2022/07/16 12:51:31;;;;;;;2.97;0.93;;;23.60;82.80;;;;;;5046268;28;20201;-68
2022/07/16 12:54:00;;;;;;;1.80;0.98;;;23.60;81.40;;;;;;5034597;28;20871;-67
2022/07/16 12:59:12;;;;;;;2.65;1.10;;;22.70;82.50;;;;;;5046200;28;20658;-68
2022/07/16 13:01:40;;;;;;;1.65;1.02;;;22.60;82.70;;;;;;5046380;28;20323;-67
2022/07/16 13:04:09;;;;;;;1.60;1.13;;;22.80;83.60;;;;;;5043718;28;20947;-67
2022/07/16 13:06:36;;;;;;;3.10;1.10;;;23.10;82.60;;;;;;5026113;28;20201;-67